createdAt,value
2019-04-19T00:03:24.226Z,49.06
2019-04-19T00:08:37.295Z,48.97
2019-04-19T00:13:28.418Z,49.44
2019-04-19T00:18:31.119Z,49.65
2019-04-19T00:23:38.325Z,50.14
2019-04-19T00:28:44.945Z,50.16
2019-04-19T00:33:47.569Z,50.31
2019-04-19T00:39:06.426Z,50.77
2019-04-19T00:44:38.536Z,51.00
2019-04-19T00:49:33.932Z,51.37
2019-04-19T00:54:45.554Z,51.33
2019-04-19T00:59:40.501Z,51.17
2019-04-19T01:04:39.686Z,51.75
2019-04-19T01:10:02.747Z,51.89
2019-04-19T01:15:01.026Z,51.89
2019-04-19T01:19:56.882Z,52.38
2019-04-19T01:24:56.318Z,52.57
2019-04-19T01:30:00.961Z,52.73
2019-04-19T01:35:09.716Z,52.84
2019-04-19T01:40:22.486Z,53.23
2019-04-19T01:45:42.391Z,53.37
2019-04-19T01:51:07.772Z,53.24
2019-04-19T01:55:53.199Z,53.39
2019-04-19T02:00:58.738Z,53.33
2019-04-19T02:06:05.152Z,53.46
2019-04-19T02:12:03.531Z,53.51
2019-04-19T02:17:02.578Z,53.99
2019-04-19T02:22:11.385Z,54.38
2019-04-19T02:27:10.101Z,54.73
2019-04-19T02:32:43.313Z,54.70
2019-04-19T02:37:37.628Z,55.29
2019-04-19T02:42:44.862Z,55.23
2019-04-19T02:48:12.988Z,55.36
2019-04-19T02:52:56.637Z,55.40
2019-04-19T02:58:04.534Z,55.50
2019-04-19T03:07:57.637Z,55.10
2019-04-19T03:13:19.546Z,55.09
2019-04-19T03:18:29.043Z,55.72
2019-04-19T03:23:21.798Z,55.68
2019-04-19T03:28:22.130Z,55.78
2019-04-19T03:38:39.818Z,55.60
2019-04-19T03:44:03.691Z,55.77
2019-04-19T03:49:19.600Z,56.04
2019-04-19T03:54:19.155Z,56.36
2019-04-19T03:59:02.854Z,56.01
2019-04-19T04:04:11.950Z,56.47
2019-04-19T04:09:25.113Z,56.59
2019-04-19T04:14:49.568Z,56.75
2019-04-19T04:19:39.655Z,56.91
2019-04-19T04:24:55.446Z,56.72
2019-04-19T04:30:00.124Z,56.41
2019-04-19T04:35:10.792Z,56.75
2019-04-19T04:39:57.679Z,56.90
2019-04-19T04:45:22.995Z,56.54
2019-04-19T04:51:04.447Z,56.89
2019-04-19T04:55:57.921Z,56.44
2019-04-19T05:01:05.006Z,56.52
2019-04-19T05:06:22.800Z,56.49
2019-04-19T05:11:24.426Z,56.52
2019-04-19T05:21:38.844Z,56.26
2019-04-19T05:26:48.135Z,56.32
2019-04-19T05:31:35.749Z,56.14
2019-04-19T05:36:54.603Z,55.69
2019-04-19T05:42:03.757Z,55.70
2019-04-19T05:47:17.198Z,55.35
2019-04-19T05:52:19.154Z,54.71
2019-04-19T05:57:28.107Z,54.08
2019-04-19T06:02:19.218Z,53.34
2019-04-19T06:07:31.743Z,53.16
2019-04-19T06:12:26.862Z,53.01
2019-04-19T06:17:56.348Z,52.90
2019-04-19T06:23:02.530Z,52.75
2019-04-19T06:33:13.787Z,52.49
2019-04-19T06:37:59.247Z,52.82
2019-04-19T06:43:11.136Z,52.66
2019-04-19T06:48:12.801Z,52.48
2019-04-19T06:53:12.280Z,51.85
2019-04-19T06:58:22.292Z,51.32
2019-04-19T07:03:19.822Z,50.60
2019-04-19T07:13:38.330Z,50.53
2019-04-19T07:18:42.513Z,50.46
2019-04-19T07:23:54.340Z,49.78
2019-04-19T07:28:41.908Z,49.85
2019-04-19T07:34:07.418Z,49.07
2019-04-19T07:39:09.462Z,48.39
2019-04-19T07:44:21.333Z,47.87
2019-04-19T07:49:15.312Z,47.38
2019-04-19T07:54:25.271Z,47.05
2019-04-19T07:59:55.688Z,46.33
2019-04-19T08:10:24.786Z,46.13
2019-04-19T08:15:15.447Z,46.07
2019-04-19T08:30:04.575Z,45.67
2019-04-19T08:35:09.383Z,45.52
2019-04-19T08:40:33.564Z,45.02
2019-04-19T08:45:33.057Z,44.90
2019-04-19T08:50:48.228Z,45.40
2019-04-19T08:56:05.616Z,45.42
2019-04-19T09:01:17.479Z,46.23
2019-04-19T09:07:05.757Z,45.13
2019-04-19T09:11:16.744Z,45.08
2019-04-19T09:16:20.429Z,45.31
2019-04-19T09:21:21.560Z,44.68
2019-04-19T09:26:36.919Z,44.59
2019-04-19T09:31:32.255Z,44.15
2019-04-19T09:36:35.796Z,45.38
2019-04-19T09:41:38.697Z,44.42
2019-04-19T09:46:36.029Z,45.06
2019-04-19T09:51:55.590Z,44.95
2019-04-19T09:56:57.946Z,43.83
2019-04-19T10:01:52.217Z,44.20
2019-04-19T10:06:54.214Z,43.21
2019-04-19T10:11:59.161Z,42.89
2019-04-19T10:17:12.350Z,42.75
2019-04-19T10:22:16.597Z,42.42
2019-04-19T10:27:24.867Z,42.17
2019-04-19T10:32:30.625Z,42.07
2019-04-19T10:37:33.724Z,41.41
2019-04-19T10:42:36.563Z,41.46
2019-04-19T10:47:39.969Z,41.11
2019-04-19T10:52:43.687Z,40.55
2019-04-19T10:57:47.348Z,40.51
2019-04-19T11:02:50.316Z,40.71
2019-04-19T11:07:53.759Z,39.79
2019-04-19T11:12:56.814Z,38.28
2019-04-19T11:17:59.555Z,39.15
2019-04-19T11:23:02.278Z,38.75
2019-04-19T11:28:05.058Z,39.13
2019-04-19T11:33:16.880Z,37.27
2019-04-19T11:38:20.922Z,38.96
2019-04-19T11:43:25.148Z,38.54
2019-04-19T11:48:30.336Z,38.36
2019-04-19T11:53:42.864Z,37.89
2019-04-19T11:58:47.097Z,37.51
2019-04-19T12:03:50.096Z,37.18
2019-04-19T12:08:54.026Z,37.26
2019-04-19T12:13:58.355Z,37.15
2019-04-19T12:19:02.170Z,35.92
2019-04-19T12:24:04.936Z,37.01
2019-04-19T12:29:07.657Z,35.80
2019-04-19T12:34:11.411Z,36.33
2019-04-19T12:39:15.113Z,37.04
2019-04-19T12:44:17.827Z,37.02
2019-04-19T12:49:20.804Z,35.92
2019-04-19T12:54:23.754Z,35.74
2019-04-19T12:59:26.559Z,35.65
2019-04-19T13:04:36.202Z,35.53
2019-04-19T13:09:39.319Z,35.52
2019-04-19T13:14:42.135Z,35.29
2019-04-19T13:19:45.091Z,35.58
2019-04-19T13:24:48.178Z,35.37
2019-04-19T13:29:52.000Z,35.37
2019-04-19T13:34:55.080Z,35.83
2019-04-19T13:40:17.509Z,35.05
2019-04-19T13:45:26.855Z,35.37
2019-04-19T13:50:32.182Z,34.92
2019-04-19T13:55:30.677Z,34.97
2019-04-19T14:00:46.805Z,35.41
2019-04-19T14:05:50.415Z,35.13
2019-04-19T14:10:53.181Z,34.92
2019-04-19T14:15:56.555Z,34.81
2019-04-19T14:21:00.966Z,35.14
2019-04-19T14:26:05.537Z,34.53
2019-04-19T14:31:08.514Z,34.01
2019-04-19T14:36:11.224Z,33.88
2019-04-19T14:41:13.972Z,33.77
2019-04-19T14:46:16.791Z,33.73
2019-04-19T14:51:25.813Z,33.58
2019-04-19T14:56:24.247Z,34.12
2019-04-19T15:01:46.898Z,34.11
2019-04-19T15:06:49.815Z,34.41
2019-04-19T15:11:52.717Z,34.12
2019-04-19T15:16:56.755Z,34.49
2019-04-19T15:21:59.801Z,33.81
2019-04-19T15:27:03.093Z,34.04
2019-04-19T15:32:06.341Z,33.50
2019-04-19T15:37:09.635Z,33.42
2019-04-19T15:42:12.437Z,33.68
2019-04-19T15:47:15.166Z,33.46
2019-04-19T15:52:18.104Z,33.43
2019-04-19T15:57:20.824Z,33.33
2019-04-19T16:02:42.282Z,33.74
2019-04-19T16:08:11.143Z,33.86
2019-04-19T16:13:13.969Z,33.56
2019-04-19T16:18:20.036Z,33.17
2019-04-19T16:23:23.894Z,33.41
2019-04-19T16:28:27.462Z,33.65
2019-04-19T16:33:30.386Z,33.86
2019-04-19T16:38:33.143Z,32.86
2019-04-19T16:43:35.886Z,33.41
2019-04-19T16:48:38.607Z,33.66
2019-04-19T16:53:42.232Z,33.85
2019-04-19T16:58:45.148Z,33.94
2019-04-19T17:03:47.907Z,34.30
2019-04-19T17:08:52.633Z,35.09
2019-04-19T17:13:56.591Z,34.75
2019-04-19T17:19:22.071Z,34.65
2019-04-19T17:24:26.867Z,34.78
2019-04-19T17:29:31.055Z,35.07
2019-04-19T17:34:34.217Z,35.06
2019-04-19T17:39:38.196Z,35.60
2019-04-19T17:44:41.744Z,35.55
2019-04-19T17:49:46.548Z,36.08
2019-04-19T17:55:04.964Z,36.64
2019-04-19T17:59:56.328Z,36.46
2019-04-19T18:05:00.024Z,36.91
2019-04-19T18:10:09.622Z,37.18
2019-04-19T18:15:09.832Z,37.48
2019-04-19T18:20:19.075Z,37.60
2019-04-19T18:25:20.147Z,38.17
2019-04-19T18:30:24.564Z,38.54
2019-04-19T18:35:31.796Z,38.61
2019-04-19T18:40:35.344Z,38.90
2019-04-19T18:45:41.966Z,39.14
2019-04-19T18:50:50.412Z,39.28
2019-04-19T18:55:53.581Z,39.88
2019-04-19T19:00:57.012Z,40.73
2019-04-19T19:06:04.097Z,40.69
2019-04-19T19:11:13.045Z,40.74
2019-04-19T19:16:18.569Z,41.82
2019-04-19T19:21:18.100Z,41.64
2019-04-19T19:26:31.869Z,42.26
2019-04-19T19:31:29.646Z,42.44
2019-04-19T19:36:37.936Z,43.22
2019-04-19T19:42:32.577Z,42.78
2019-04-19T19:47:25.130Z,43.99
2019-04-19T19:52:18.450Z,44.28
2019-04-19T19:57:23.009Z,44.13
2019-04-19T20:02:23.566Z,44.55
2019-04-19T20:07:20.667Z,45.49
2019-04-19T20:12:26.479Z,45.07
2019-04-19T20:17:29.279Z,45.38
2019-04-19T20:22:39.126Z,45.58
2019-04-19T20:27:44.870Z,45.64
2019-04-19T20:32:49.918Z,45.91
2019-04-19T20:37:52.046Z,45.28
2019-04-19T20:43:16.585Z,44.86
2019-04-19T20:48:07.901Z,44.85
2019-04-19T20:53:29.255Z,44.93
2019-04-19T20:58:34.324Z,45.36
2019-04-19T21:03:34.334Z,45.58
2019-04-19T21:08:42.365Z,45.52
2019-04-19T21:13:45.850Z,45.62
2019-04-19T21:18:49.440Z,45.55
2019-04-19T21:24:01.503Z,45.53
2019-04-19T21:28:59.192Z,45.70
2019-04-19T21:34:05.983Z,45.64
2019-04-19T21:39:11.973Z,45.70
2019-04-19T21:44:17.940Z,45.64
2019-04-19T21:49:22.804Z,45.76
2019-04-19T21:54:26.434Z,45.88
2019-04-19T21:59:34.553Z,45.77
2019-04-19T22:04:41.150Z,45.84
2019-04-19T22:09:43.379Z,45.79
2019-04-19T22:14:44.435Z,45.44
2019-04-19T22:19:47.728Z,45.71
2019-04-19T22:24:51.393Z,45.45
2019-04-19T22:29:55.571Z,45.63
2019-04-19T22:35:00.756Z,46.12
2019-04-19T22:40:04.869Z,46.27
2019-04-19T22:45:11.658Z,46.21
2019-04-19T22:50:19.391Z,46.33
2019-04-19T22:55:19.113Z,46.12
2019-04-19T23:00:24.729Z,46.33
2019-04-19T23:05:36.578Z,46.72
2019-04-19T23:10:45.038Z,46.52
2019-04-19T23:15:39.139Z,46.48
2019-04-19T23:20:43.388Z,46.38
2019-04-19T23:25:57.081Z,46.52
2019-04-19T23:30:51.753Z,46.56
2019-04-19T23:35:55.628Z,46.54
2019-04-19T23:40:59.277Z,46.53
2019-04-19T23:46:03.389Z,46.81
2019-04-19T23:51:06.399Z,46.86
2019-04-19T23:56:19.903Z,46.84
